createdAt,value
2022-11-29T00:03:00.737Z,49.13
2022-11-29T00:06:24.031Z,49.37
2022-11-29T00:09:27.755Z,51.43
2022-11-29T00:12:30.515Z,54.17
2022-11-29T00:15:37.099Z,54.58
2022-11-29T00:18:39.996Z,53.60
2022-11-29T00:21:42.740Z,51.83
2022-11-29T00:24:45.668Z,53.73
2022-11-29T00:27:48.763Z,53.55
2022-11-29T00:30:53.115Z,50.85
2022-11-29T00:33:57.030Z,50.42
2022-11-29T00:37:00.023Z,52.93
2022-11-29T00:40:03.223Z,48.40
2022-11-29T00:43:06.173Z,51.35
2022-11-29T00:46:10.026Z,54.92
2022-11-29T00:49:15.727Z,53.90
2022-11-29T00:52:24.659Z,49.27
2022-11-29T00:55:27.395Z,52.63
2022-11-29T00:58:30.496Z,51.35
2022-11-29T01:01:33.317Z,51.13
2022-11-29T01:04:36.277Z,51.92
2022-11-29T01:07:39.295Z,47.77
2022-11-29T01:10:45.566Z,48.53
2022-11-29T01:13:49.450Z,48.22
2022-11-29T01:16:52.346Z,53.40
2022-11-29T01:19:55.209Z,50.90
2022-11-29T01:22:58.702Z,51.23
2022-11-29T01:26:04.939Z,57.43
2022-11-29T01:29:08.045Z,50.47
2022-11-29T01:32:12.681Z,46.97
2022-11-29T01:35:15.443Z,48.83
2022-11-29T01:38:18.706Z,47.03
2022-11-29T01:41:24.852Z,47.50
2022-11-29T01:44:29.511Z,50.22
2022-11-29T01:47:32.758Z,52.28
2022-11-29T01:50:35.578Z,47.53
2022-11-29T01:53:38.693Z,44.97
2022-11-29T01:56:43.869Z,49.37
2022-11-29T01:59:49.238Z,47.55
2022-11-29T02:02:58.177Z,48.25
2022-11-29T02:06:01.391Z,48.35
2022-11-29T02:09:23.095Z,49.27
2022-11-29T02:12:44.491Z,46.83
2022-11-29T02:16:01.660Z,48.55
2022-11-29T02:19:35.078Z,48.35
2022-11-29T02:22:50.429Z,46.65
2022-11-29T02:26:11.390Z,40.17
2022-11-29T02:30:00.951Z,44.80
2022-11-29T02:33:25.538Z,47.58
2022-11-29T02:36:43.589Z,45.85
2022-11-29T02:40:34.151Z,44.17
2022-11-29T02:44:12.499Z,45.80
2022-11-29T02:47:25.242Z,44.23
2022-11-29T02:50:37.162Z,46.95
2022-11-29T02:53:49.858Z,48.40
2022-11-29T02:56:56.146Z,48.55
2022-11-29T03:00:10.138Z,44.63
2022-11-29T03:03:24.172Z,45.20
2022-11-29T03:06:40.281Z,46.75
2022-11-29T03:09:56.771Z,41.15
2022-11-29T03:13:00.426Z,47.20
2022-11-29T03:16:34.015Z,41.23
2022-11-29T03:20:04.928Z,44.60
2022-11-29T03:23:07.616Z,48.08
2022-11-29T03:26:38.094Z,46.47
2022-11-29T03:29:48.464Z,48.28
2022-11-29T03:33:17.682Z,44.00
2022-11-29T03:36:57.834Z,41.27
2022-11-29T03:40:05.925Z,46.78
2022-11-29T03:43:21.784Z,46.92
2022-11-29T03:46:33.837Z,50.47
2022-11-29T03:49:53.011Z,46.20
2022-11-29T03:53:32.002Z,45.00
2022-11-29T03:56:36.167Z,44.30
2022-11-29T03:59:42.035Z,44.50
2022-11-29T04:02:54.149Z,43.05
2022-11-29T04:06:09.148Z,49.40
2022-11-29T04:09:36.127Z,44.38
2022-11-29T04:12:57.883Z,41.78
2022-11-29T04:16:18.819Z,43.38
2022-11-29T04:19:43.664Z,44.50
2022-11-29T04:22:52.287Z,39.20
2022-11-29T04:26:33.592Z,42.47
2022-11-29T04:30:14.623Z,45.33
2022-11-29T04:33:55.638Z,46.22
2022-11-29T04:37:04.471Z,39.20
2022-11-29T04:40:28.813Z,45.37
2022-11-29T04:44:13.711Z,45.35
2022-11-29T04:47:43.067Z,43.70
2022-11-29T04:51:28.799Z,43.45
2022-11-29T04:54:46.436Z,46.73
2022-11-29T04:58:40.614Z,38.43
2022-11-29T05:01:46.267Z,42.25
2022-11-29T05:04:53.583Z,38.88
2022-11-29T05:08:02.930Z,39.70
2022-11-29T05:11:17.522Z,38.17
2022-11-29T05:14:53.552Z,40.37
2022-11-29T05:18:03.873Z,38.10
2022-11-29T05:21:17.939Z,38.88
2022-11-29T05:24:30.879Z,37.20
2022-11-29T05:27:51.446Z,44.10
2022-11-29T05:31:13.891Z,38.47
2022-11-29T05:34:35.220Z,45.03
2022-11-29T05:38:03.595Z,49.55
2022-11-29T05:41:18.455Z,49.22
2022-11-29T05:44:45.201Z,37.03
2022-11-29T05:48:13.152Z,47.10
2022-11-29T05:51:23.143Z,41.25
2022-11-29T05:54:37.881Z,42.17
2022-11-29T05:58:10.455Z,44.92
2022-11-29T06:01:16.193Z,41.50
2022-11-29T06:04:29.068Z,34.23
2022-11-29T06:07:41.242Z,40.88
2022-11-29T06:11:18.638Z,39.58
2022-11-29T06:14:47.927Z,42.70
2022-11-29T06:18:12.145Z,43.63
2022-11-29T06:21:18.292Z,38.77
2022-11-29T06:24:39.990Z,41.60
2022-11-29T06:28:15.540Z,42.53
2022-11-29T06:31:29.093Z,46.72
2022-11-29T06:34:59.225Z,46.07
2022-11-29T06:38:12.850Z,38.93
2022-11-29T06:41:20.637Z,38.08
2022-11-29T06:44:23.791Z,39.47
2022-11-29T06:47:33.579Z,38.05
2022-11-29T06:51:02.270Z,37.57
2022-11-29T06:54:37.347Z,37.83
2022-11-29T06:58:07.936Z,37.83
2022-11-29T07:01:13.691Z,36.95
2022-11-29T07:04:30.428Z,44.17
2022-11-29T07:07:34.517Z,35.37
2022-11-29T07:10:39.897Z,40.07
2022-11-29T07:13:42.982Z,44.88
2022-11-29T07:17:10.280Z,38.13
2022-11-29T07:20:23.080Z,40.83
2022-11-29T07:23:54.702Z,41.33
2022-11-29T07:27:07.318Z,39.17
2022-11-29T07:30:14.419Z,38.75
2022-11-29T07:33:23.226Z,38.10
2022-11-29T07:36:45.438Z,37.90
2022-11-29T07:39:57.312Z,40.23
2022-11-29T07:43:29.557Z,38.27
2022-11-29T07:46:32.548Z,38.75
2022-11-29T07:49:35.420Z,45.00
2022-11-29T07:52:39.440Z,41.03
2022-11-29T07:55:43.056Z,45.60
2022-11-29T07:58:46.242Z,38.90
2022-11-29T08:01:49.234Z,40.72
2022-11-29T08:04:52.389Z,41.22
2022-11-29T08:07:56.268Z,44.80
2022-11-29T08:10:59.544Z,41.63
2022-11-29T08:14:04.432Z,35.50
2022-11-29T08:17:07.256Z,34.38
2022-11-29T08:20:12.418Z,32.80
2022-11-29T08:23:16.214Z,38.58
2022-11-29T08:26:21.011Z,32.70
2022-11-29T08:29:24.253Z,40.27
2022-11-29T08:32:27.803Z,38.13
2022-11-29T08:35:31.177Z,31.98
2022-11-29T08:38:34.486Z,35.85
2022-11-29T08:41:37.719Z,34.43
2022-11-29T08:44:41.060Z,36.90
2022-11-29T08:47:45.018Z,32.65
2022-11-29T08:50:50.677Z,38.42
2022-11-29T08:53:53.571Z,34.55
2022-11-29T09:00:23.800Z,39.20
2022-11-29T09:03:45.145Z,41.55
2022-11-29T09:06:49.993Z,35.70
2022-11-29T09:09:52.848Z,40.22
2022-11-29T09:12:55.842Z,38.73
2022-11-29T09:15:59.270Z,36.67
2022-11-29T09:19:02.624Z,37.67
2022-11-29T09:22:05.574Z,45.10
2022-11-29T09:25:08.769Z,37.17
2022-11-29T09:28:12.893Z,40.57
2022-11-29T09:31:16.611Z,36.07
2022-11-29T09:34:19.409Z,37.13
2022-11-29T09:37:22.203Z,43.13
2022-11-29T09:40:39.333Z,42.65
2022-11-29T09:44:10.075Z,40.67
2022-11-29T09:47:37.101Z,40.90
2022-11-29T09:50:54.717Z,45.78
2022-11-29T09:54:25.254Z,43.03
2022-11-29T09:57:29.253Z,42.72
2022-11-29T10:00:35.156Z,47.67
2022-11-29T10:03:47.101Z,36.20
2022-11-29T10:06:59.483Z,40.67
2022-11-29T10:10:32.730Z,43.13
2022-11-29T10:13:36.333Z,45.65
2022-11-29T10:16:51.095Z,48.03
2022-11-29T10:20:04.879Z,40.90
2022-11-29T10:23:13.729Z,40.00
2022-11-29T10:26:16.528Z,36.15
2022-11-29T10:29:19.870Z,41.08
2022-11-29T10:32:32.205Z,38.93
2022-11-29T10:35:35.017Z,37.87
2022-11-29T10:38:40.851Z,37.25
2022-11-29T10:41:43.670Z,41.42
2022-11-29T10:44:49.526Z,41.15
2022-11-29T10:47:58.646Z,40.63
2022-11-29T10:51:09.291Z,36.33
2022-11-29T10:54:37.582Z,38.58
2022-11-29T10:58:15.168Z,38.25
2022-11-29T11:01:18.912Z,34.60
2022-11-29T11:04:25.974Z,36.27
2022-11-29T11:07:35.870Z,32.97
2022-11-29T11:10:39.644Z,36.03
2022-11-29T11:13:42.502Z,38.53
2022-11-29T11:16:45.311Z,38.22
2022-11-29T11:20:14.491Z,36.10
2022-11-29T11:23:25.333Z,34.13
2022-11-29T11:26:44.028Z,33.92
2022-11-29T11:29:46.870Z,32.28
2022-11-29T11:33:09.533Z,35.35
2022-11-29T11:36:23.646Z,34.43
2022-11-29T11:39:28.158Z,35.50
2022-11-29T11:42:38.157Z,41.33
2022-11-29T11:45:40.858Z,55.15
2022-11-29T11:48:43.649Z,44.80
2022-11-29T11:51:46.510Z,52.67
2022-11-29T11:54:54.238Z,31.13
2022-11-29T11:58:07.818Z,90.00
2022-11-29T12:01:12.494Z,37.80
2022-11-29T12:04:19.699Z,31.67
2022-11-29T12:11:15.315Z,55.20
2022-11-29T12:14:37.403Z,35.90
2022-11-29T12:18:02.567Z,31.95
2022-11-29T12:21:15.380Z,29.00
2022-11-29T12:24:26.232Z,29.43
2022-11-29T12:27:30.308Z,29.33
2022-11-29T12:30:33.872Z,27.73
2022-11-29T12:33:46.820Z,30.85
2022-11-29T12:37:17.089Z,28.90
2022-11-29T12:40:45.124Z,36.07
2022-11-29T12:44:05.915Z,30.10
2022-11-29T12:47:35.325Z,44.53
2022-11-29T12:51:12.029Z,31.60
2022-11-29T12:54:40.334Z,31.95
2022-11-29T12:57:57.714Z,35.97
2022-11-29T13:01:16.375Z,33.00
2022-11-29T13:04:37.903Z,30.92
2022-11-29T13:07:44.009Z,30.98
2022-11-29T13:11:14.455Z,32.28
2022-11-29T13:14:55.712Z,29.60
2022-11-29T13:18:04.768Z,30.07
2022-11-29T13:21:16.425Z,29.83
2022-11-29T13:24:26.113Z,31.75
2022-11-29T13:27:35.063Z,31.60
2022-11-29T13:30:41.007Z,31.30
2022-11-29T13:33:53.810Z,31.73
2022-11-29T13:37:33.323Z,33.50
2022-11-29T13:41:05.385Z,33.53
2022-11-29T13:44:33.838Z,33.53
2022-11-29T13:47:49.392Z,35.20
2022-11-29T13:50:52.202Z,34.57
2022-11-29T13:53:56.314Z,32.53
2022-11-29T13:57:09.564Z,35.17
2022-11-29T14:00:29.085Z,34.90
2022-11-29T14:03:39.540Z,33.20
2022-11-29T14:06:48.849Z,34.37
2022-11-29T14:09:57.167Z,36.25
2022-11-29T14:13:04.653Z,36.63
2022-11-29T14:16:15.924Z,33.88
2022-11-29T14:19:32.858Z,34.57
2022-11-29T14:23:05.508Z,34.90
2022-11-29T14:26:08.251Z,35.88
2022-11-29T14:29:54.020Z,34.90
2022-11-29T14:33:19.113Z,32.33
2022-11-29T14:36:28.770Z,35.10
2022-11-29T14:39:44.558Z,38.50
2022-11-29T14:42:48.592Z,36.72
2022-11-29T14:46:14.726Z,39.30
2022-11-29T14:49:25.428Z,44.30
2022-11-29T14:52:32.169Z,41.50
2022-11-29T14:55:38.625Z,46.27
2022-11-29T14:58:41.461Z,44.13
2022-11-29T15:01:49.262Z,49.47
2022-11-29T15:04:55.148Z,48.67
2022-11-29T15:08:25.860Z,39.90
2022-11-29T15:11:52.232Z,40.80
2022-11-29T15:15:32.324Z,45.35
2022-11-29T15:19:13.469Z,42.30
2022-11-29T15:22:52.578Z,41.15
2022-11-29T15:26:00.500Z,40.20
2022-11-29T15:29:14.626Z,39.13
2022-11-29T15:32:26.187Z,43.97
2022-11-29T15:35:29.299Z,47.90
2022-11-29T15:38:43.323Z,50.25
2022-11-29T15:41:49.183Z,43.37
2022-11-29T15:44:53.425Z,49.47
2022-11-29T15:48:11.673Z,48.67
2022-11-29T15:51:32.235Z,53.55
2022-11-29T15:54:45.122Z,57.45
2022-11-29T15:57:51.038Z,64.73
2022-11-29T16:00:54.693Z,53.67
2022-11-29T16:03:58.643Z,53.40
2022-11-29T16:07:03.816Z,51.85
2022-11-29T16:10:16.396Z,49.60
2022-11-29T16:13:31.966Z,54.70
2022-11-29T16:16:35.788Z,55.10
2022-11-29T16:19:40.988Z,52.08
2022-11-29T16:22:46.371Z,73.87
2022-11-29T16:26:12.223Z,58.72
2022-11-29T16:29:31.599Z,50.77
2022-11-29T16:32:36.706Z,56.37
2022-11-29T16:35:39.812Z,49.08
2022-11-29T16:38:56.692Z,54.85
2022-11-29T16:42:20.537Z,52.33
2022-11-29T16:45:42.639Z,62.17
2022-11-29T16:48:46.083Z,55.03
2022-11-29T16:51:49.401Z,52.78
2022-11-29T16:54:52.531Z,57.30
2022-11-29T16:57:55.423Z,57.05
2022-11-29T17:00:58.336Z,55.07
2022-11-29T17:04:01.609Z,64.03
2022-11-29T17:07:07.121Z,67.07
2022-11-29T17:10:15.732Z,83.65
2022-11-29T17:13:19.535Z,97.47
2022-11-29T17:16:24.119Z,61.67
2022-11-29T17:19:29.435Z,90.07
2022-11-29T17:22:34.041Z,83.55
2022-11-29T17:25:41.211Z,91.47
2022-11-29T17:28:48.031Z,122.50
2022-11-29T17:31:54.027Z,123.73
2022-11-29T17:34:57.192Z,117.53
2022-11-29T17:38:00.547Z,116.97
2022-11-29T17:41:08.923Z,125.05
2022-11-29T17:44:12.466Z,115.55
2022-11-29T17:47:15.904Z,101.30
2022-11-29T17:50:19.365Z,108.40
2022-11-29T17:53:25.432Z,111.80
2022-11-29T17:56:30.475Z,133.45
2022-11-29T17:59:33.842Z,121.72
2022-11-29T18:02:37.022Z,129.00
2022-11-29T18:05:40.818Z,168.07
2022-11-29T18:08:45.967Z,149.07
2022-11-29T18:11:50.170Z,143.93
2022-11-29T18:14:53.886Z,185.40
2022-11-29T18:17:57.883Z,140.80
2022-11-29T18:21:02.788Z,161.50
2022-11-29T18:24:07.033Z,149.55
2022-11-29T18:27:10.317Z,206.38
2022-11-29T18:30:13.662Z,204.80
2022-11-29T18:33:16.893Z,169.63
2022-11-29T18:36:22.190Z,136.17
2022-11-29T18:39:25.684Z,127.43
2022-11-29T18:42:29.016Z,127.43
2022-11-29T18:45:35.666Z,126.22
2022-11-29T18:48:39.195Z,172.00
2022-11-29T18:51:46.496Z,168.43
2022-11-29T18:54:52.386Z,179.48
2022-11-29T18:57:55.843Z,175.55
2022-11-29T19:01:10.654Z,159.45
2022-11-29T19:04:16.290Z,146.93
2022-11-29T19:07:19.831Z,104.73
2022-11-29T19:10:22.945Z,101.40
2022-11-29T19:13:26.251Z,90.20
2022-11-29T19:16:32.797Z,76.87
2022-11-29T19:19:37.790Z,82.97
2022-11-29T19:22:41.501Z,85.07
2022-11-29T19:25:45.328Z,73.40
2022-11-29T19:28:49.306Z,69.43
2022-11-29T19:31:55.374Z,69.07
2022-11-29T19:34:59.132Z,70.83
2022-11-29T19:38:04.196Z,70.67
2022-11-29T19:41:11.981Z,82.80
2022-11-29T19:44:15.235Z,92.00
2022-11-29T19:47:18.486Z,79.95
2022-11-29T19:50:21.976Z,68.53
2022-11-29T19:53:25.111Z,66.30
2022-11-29T19:56:29.519Z,68.47
2022-11-29T19:59:36.025Z,61.08
2022-11-29T20:02:40.529Z,64.15
2022-11-29T20:05:53.762Z,74.43
2022-11-29T20:09:00.083Z,87.93
2022-11-29T20:12:03.701Z,116.62
2022-11-29T20:15:08.686Z,97.45
2022-11-29T20:18:12.955Z,84.37
2022-11-29T20:21:19.147Z,84.50
2022-11-29T20:24:25.409Z,85.10
2022-11-29T20:27:28.728Z,99.55
2022-11-29T20:30:32.424Z,83.47
2022-11-29T20:33:35.907Z,101.82
2022-11-29T20:37:00.960Z,119.23
2022-11-29T20:40:16.096Z,98.37
2022-11-29T20:43:29.745Z,104.32
2022-11-29T20:46:35.729Z,89.85
2022-11-29T20:49:39.241Z,86.45
2022-11-29T20:52:57.642Z,80.23
2022-11-29T20:56:01.221Z,87.87
2022-11-29T20:59:04.343Z,81.20
2022-11-29T21:02:07.647Z,77.72
2022-11-29T21:05:11.029Z,77.35
2022-11-29T21:08:15.377Z,75.83
2022-11-29T21:11:18.415Z,67.87
2022-11-29T21:14:21.653Z,70.57
2022-11-29T21:17:33.404Z,68.90
2022-11-29T21:20:36.747Z,70.95
2022-11-29T21:24:09.789Z,71.67
2022-11-29T21:27:25.720Z,71.37
2022-11-29T21:30:34.993Z,78.85
2022-11-29T21:33:37.881Z,69.47
2022-11-29T21:36:41.010Z,73.47
2022-11-29T21:39:44.002Z,70.10
2022-11-29T21:42:46.832Z,70.07
2022-11-29T21:45:49.720Z,78.60
2022-11-29T21:48:53.134Z,71.53
2022-11-29T21:52:01.245Z,77.68
2022-11-29T21:55:04.369Z,83.63
2022-11-29T21:58:07.180Z,72.67
2022-11-29T22:01:15.457Z,75.18
2022-11-29T22:04:18.768Z,65.47
2022-11-29T22:07:21.576Z,68.60
2022-11-29T22:10:28.270Z,71.30
2022-11-29T22:13:31.199Z,72.40
2022-11-29T22:16:34.219Z,62.92
2022-11-29T22:19:38.014Z,58.65
2022-11-29T22:22:40.763Z,58.70
2022-11-29T22:25:43.508Z,56.67
2022-11-29T22:28:46.206Z,52.53
2022-11-29T22:31:54.628Z,56.30
2022-11-29T22:34:57.323Z,56.67
2022-11-29T22:38:00.173Z,58.15
2022-11-29T22:41:05.489Z,60.23
2022-11-29T22:44:08.725Z,52.70
2022-11-29T22:47:11.426Z,60.03
2022-11-29T22:50:14.230Z,61.17
2022-11-29T22:53:23.249Z,59.47
2022-11-29T22:56:29.293Z,56.00
2022-11-29T22:59:32.149Z,60.57
2022-11-29T23:02:34.935Z,59.97
2022-11-29T23:05:37.742Z,58.67
2022-11-29T23:08:42.071Z,60.17
2022-11-29T23:11:45.841Z,59.13
2022-11-29T23:14:54.497Z,55.83
2022-11-29T23:18:02.538Z,61.72
2022-11-29T23:21:08.397Z,58.10
2022-11-29T23:24:11.340Z,60.97
2022-11-29T23:27:14.125Z,61.60
2022-11-29T23:30:16.872Z,60.67
2022-11-29T23:33:19.735Z,56.42
2022-11-29T23:36:22.590Z,64.85
2022-11-29T23:39:25.343Z,57.38
2022-11-29T23:42:28.061Z,63.57
2022-11-29T23:45:30.809Z,64.50
2022-11-29T23:48:33.638Z,61.97
2022-11-29T23:51:36.330Z,65.10
2022-11-29T23:54:38.964Z,61.80
2022-11-29T23:57:41.916Z,63.17
